createdAt,value
2023-02-12T00:02:03.525Z,24.23
2023-02-12T00:04:30.324Z,25.10
2023-02-12T00:06:56.933Z,24.27
2023-02-12T00:09:23.529Z,24.13
2023-02-12T00:11:50.233Z,24.57
2023-02-12T00:14:16.994Z,24.87
2023-02-12T00:16:43.706Z,24.67
2023-02-12T00:19:10.423Z,24.57
2023-02-12T00:21:37.093Z,23.63
2023-02-12T00:24:04.164Z,24.10
2023-02-12T00:26:30.953Z,23.70
2023-02-12T00:28:57.614Z,25.17
2023-02-12T00:31:28.350Z,25.07
2023-02-12T00:33:56.626Z,25.07
2023-02-12T00:36:26.112Z,26.43
2023-02-12T00:38:54.811Z,24.60
2023-02-12T00:41:22.610Z,24.13
2023-02-12T00:43:50.380Z,24.97
2023-02-12T00:46:17.321Z,25.20
2023-02-12T00:48:44.282Z,25.57
2023-02-12T00:51:11.011Z,25.37
2023-02-12T00:53:38.006Z,25.53
2023-02-12T00:56:04.956Z,24.83
2023-02-12T00:58:31.753Z,25.53
2023-02-12T01:00:59.496Z,27.47
2023-02-12T01:03:26.212Z,26.27
2023-02-12T01:05:54.018Z,26.00
2023-02-12T01:08:21.949Z,27.13
2023-02-12T01:11:04.077Z,26.30
2023-02-12T01:13:31.817Z,26.00
2023-02-12T01:16:10.884Z,26.27
2023-02-12T01:18:38.050Z,26.30
2023-02-12T01:21:11.557Z,25.70
2023-02-12T01:23:38.466Z,24.80
2023-02-12T01:26:05.342Z,25.47
2023-02-12T01:28:32.027Z,24.93
2023-02-12T01:30:58.796Z,24.87
2023-02-12T01:33:26.997Z,24.50
2023-02-12T01:35:54.930Z,25.87
2023-02-12T01:38:21.815Z,24.73
2023-02-12T01:40:48.543Z,24.17
2023-02-12T01:43:15.181Z,25.43
2023-02-12T01:45:50.803Z,25.07
2023-02-12T01:48:20.369Z,24.77
2023-02-12T01:50:49.088Z,24.20
2023-02-12T01:53:20.223Z,23.63
2023-02-12T01:55:48.860Z,24.63
2023-02-12T01:58:16.267Z,24.77
2023-02-12T02:00:43.464Z,23.30
2023-02-12T02:03:10.300Z,24.33
2023-02-12T02:05:45.716Z,23.07
2023-02-12T02:08:13.154Z,25.40
2023-02-12T02:10:39.899Z,25.87
2023-02-12T02:13:26.136Z,25.23
2023-02-12T02:15:59.866Z,25.33
2023-02-12T02:18:43.260Z,23.47
2023-02-12T02:21:41.905Z,24.60
2023-02-12T02:24:47.353Z,22.67
2023-02-12T02:27:23.480Z,23.60
2023-02-12T02:30:23.931Z,24.17
2023-02-12T02:33:24.461Z,24.53
2023-02-12T02:36:02.983Z,25.27
2023-02-12T02:39:00.812Z,24.97
2023-02-12T02:41:38.987Z,24.90
2023-02-12T02:44:14.965Z,23.73
2023-02-12T02:46:48.681Z,23.93
2023-02-12T02:49:25.299Z,23.87
2023-02-12T02:51:59.454Z,23.43
2023-02-12T02:54:32.242Z,23.93
2023-02-12T02:57:06.962Z,23.33
2023-02-12T02:59:40.078Z,22.27
2023-02-12T03:02:12.725Z,23.87
2023-02-12T03:04:46.103Z,24.60
2023-02-12T03:07:38.321Z,24.40
2023-02-12T03:10:15.868Z,24.70
2023-02-12T03:13:08.185Z,25.00
2023-02-12T03:15:39.943Z,24.57
2023-02-12T03:18:12.757Z,22.23
2023-02-12T03:20:48.704Z,22.73
2023-02-12T03:23:23.464Z,23.57
2023-02-12T03:25:57.079Z,22.77
2023-02-12T03:28:31.369Z,22.17
2023-02-12T03:31:22.276Z,22.63
2023-02-12T03:34:07.299Z,22.90
2023-02-12T03:36:56.759Z,23.10
2023-02-12T03:39:43.556Z,23.47
2023-02-12T03:42:18.209Z,23.90
2023-02-12T03:44:44.798Z,23.93
2023-02-12T03:47:21.071Z,24.07
2023-02-12T03:50:18.000Z,24.17
2023-02-12T03:52:46.319Z,25.13
2023-02-12T03:55:16.409Z,25.37
2023-02-12T03:57:47.859Z,24.00
2023-02-12T04:00:22.112Z,24.83
2023-02-12T04:02:48.944Z,25.20
2023-02-12T04:05:20.182Z,25.20
2023-02-12T04:07:47.198Z,24.07
2023-02-12T04:10:14.444Z,22.93
2023-02-12T04:12:52.152Z,22.80
2023-02-12T04:15:37.425Z,23.23
2023-02-12T04:18:10.439Z,21.37
2023-02-12T04:21:06.751Z,21.47
2023-02-12T04:23:55.107Z,22.10
2023-02-12T04:26:33.580Z,22.40
2023-02-12T04:29:18.926Z,23.53
2023-02-12T04:31:48.452Z,22.90
2023-02-12T04:34:44.152Z,21.93
2023-02-12T04:37:34.089Z,18.23
2023-02-12T04:40:06.204Z,17.63
2023-02-12T04:42:44.996Z,17.53
2023-02-12T04:45:13.863Z,18.87
2023-02-12T04:47:40.641Z,17.87
2023-02-12T04:50:08.169Z,19.33
2023-02-12T04:52:34.854Z,20.60
2023-02-12T04:55:01.494Z,19.27
2023-02-12T04:57:28.195Z,18.10
2023-02-12T04:59:54.987Z,15.73
2023-02-12T05:02:21.704Z,15.30
2023-02-12T05:04:50.217Z,15.47
2023-02-12T05:07:17.153Z,15.00
2023-02-12T05:09:43.833Z,14.17
2023-02-12T05:12:10.510Z,14.23
2023-02-12T05:14:37.304Z,13.93
2023-02-12T05:17:03.924Z,13.00
2023-02-12T05:19:30.663Z,14.00
2023-02-12T05:21:57.284Z,13.60
2023-02-12T05:24:23.904Z,13.53
2023-02-12T05:26:50.742Z,13.57
2023-02-12T05:29:18.162Z,13.83
2023-02-12T05:31:45.370Z,13.20
2023-02-12T05:34:12.919Z,13.77
2023-02-12T05:36:40.030Z,14.27
2023-02-12T05:39:07.418Z,14.13
2023-02-12T05:41:37.664Z,14.00
2023-02-12T05:44:06.422Z,14.17
2023-02-12T05:46:33.379Z,14.53
2023-02-12T05:49:00.102Z,14.73
2023-02-12T05:51:27.295Z,15.27
2023-02-12T05:53:59.903Z,15.27
2023-02-12T05:56:41.524Z,15.57
2023-02-12T05:59:15.845Z,16.50
2023-02-12T06:01:44.598Z,16.93
2023-02-12T06:04:24.368Z,17.03
2023-02-12T06:06:52.707Z,16.37
2023-02-12T06:09:19.620Z,17.00
2023-02-12T06:11:46.320Z,17.63
2023-02-12T06:14:16.542Z,17.23
2023-02-12T06:16:48.482Z,16.73
2023-02-12T06:19:15.793Z,17.77
2023-02-12T06:21:42.405Z,16.63
2023-02-12T06:24:12.176Z,17.50
2023-02-12T06:26:38.978Z,17.17
2023-02-12T06:29:05.734Z,17.53
2023-02-12T06:31:35.676Z,17.73
2023-02-12T06:34:05.918Z,17.83
2023-02-12T06:36:32.954Z,16.30
2023-02-12T06:39:01.887Z,16.67
2023-02-12T06:41:28.805Z,16.40
2023-02-12T06:43:55.567Z,17.17
2023-02-12T06:46:22.598Z,16.87
2023-02-12T06:48:53.676Z,17.37
2023-02-12T06:51:22.947Z,17.00
2023-02-12T06:53:50.994Z,17.50
2023-02-12T06:56:19.070Z,17.17
2023-02-12T06:58:48.272Z,17.17
2023-02-12T07:01:21.522Z,16.93
2023-02-12T07:03:56.845Z,16.77
2023-02-12T07:06:24.854Z,16.63
2023-02-12T07:08:51.557Z,17.27
2023-02-12T07:11:18.919Z,17.53
2023-02-12T07:13:45.861Z,16.87
2023-02-12T07:16:15.093Z,17.60
2023-02-12T07:18:43.344Z,17.23
2023-02-12T07:21:12.005Z,17.27
2023-02-12T07:23:39.437Z,17.87
2023-02-12T07:26:14.001Z,17.77
2023-02-12T07:28:41.980Z,16.90
2023-02-12T07:31:09.925Z,17.33
2023-02-12T07:33:37.663Z,17.27
2023-02-12T07:36:06.289Z,18.00
2023-02-12T07:38:35.924Z,18.63
2023-02-12T07:41:10.873Z,17.17
2023-02-12T07:43:39.568Z,17.50
2023-02-12T07:46:12.226Z,17.70
2023-02-12T07:48:39.236Z,18.43
2023-02-12T07:51:11.430Z,18.67
2023-02-12T07:53:38.527Z,18.27
2023-02-12T07:56:13.849Z,17.70
2023-02-12T07:58:42.603Z,17.57
2023-02-12T08:01:33.644Z,18.10
2023-02-12T08:04:16.058Z,18.30
2023-02-12T08:06:48.421Z,17.73
2023-02-12T08:09:20.637Z,16.83
2023-02-12T08:11:47.736Z,16.97
2023-02-12T08:14:16.970Z,16.17
2023-02-12T08:16:45.025Z,15.20
2023-02-12T08:19:19.470Z,15.77
2023-02-12T08:21:52.387Z,15.90
2023-02-12T08:24:19.421Z,15.83
2023-02-12T08:26:46.142Z,14.13
2023-02-12T08:29:18.794Z,15.50
2023-02-12T08:31:48.967Z,13.07
2023-02-12T08:34:21.573Z,14.03
2023-02-12T08:36:50.486Z,14.23
2023-02-12T08:39:18.705Z,12.70
2023-02-12T08:41:46.337Z,14.93
2023-02-12T08:44:14.194Z,13.23
2023-02-12T08:46:46.749Z,14.10
2023-02-12T08:49:22.503Z,13.73
2023-02-12T08:51:54.307Z,14.73
2023-02-12T08:54:23.880Z,13.50
2023-02-12T08:56:54.122Z,12.83
2023-02-12T08:59:20.806Z,11.63
2023-02-12T09:01:51.400Z,11.73
2023-02-12T09:04:27.625Z,11.63
2023-02-12T09:06:54.723Z,11.73
2023-02-12T09:09:21.758Z,12.27
2023-02-12T09:11:49.460Z,11.10
2023-02-12T09:14:18.790Z,11.47
2023-02-12T09:16:45.959Z,11.07
2023-02-12T09:19:13.874Z,10.60
2023-02-12T09:21:41.111Z,11.30
2023-02-12T09:24:08.566Z,11.43
2023-02-12T09:26:35.520Z,11.83
2023-02-12T09:29:04.151Z,11.00
2023-02-12T09:31:32.838Z,11.63
2023-02-12T09:34:05.567Z,12.00
2023-02-12T09:36:33.510Z,12.43
2023-02-12T09:39:00.770Z,11.53
2023-02-12T09:41:47.591Z,13.10
2023-02-12T09:44:21.703Z,13.03
2023-02-12T09:47:06.868Z,12.47
2023-02-12T09:49:56.551Z,12.80
2023-02-12T09:52:27.471Z,12.77
2023-02-12T09:54:54.985Z,12.10
2023-02-12T09:57:33.361Z,12.53
2023-02-12T10:00:05.125Z,13.17
2023-02-12T10:02:34.845Z,13.50
2023-02-12T10:05:02.607Z,12.83
2023-02-12T10:07:43.583Z,13.07
2023-02-12T10:10:33.245Z,12.27
2023-02-12T10:13:13.012Z,9.57
2023-02-12T10:16:05.921Z,9.47
2023-02-12T10:18:47.911Z,8.53
2023-02-12T10:21:42.515Z,9.30
2023-02-12T10:24:31.091Z,9.30
2023-02-12T10:27:03.070Z,10.00
2023-02-12T10:29:34.787Z,10.03
2023-02-12T10:32:13.304Z,10.47
2023-02-12T10:34:42.581Z,11.20
2023-02-12T10:37:27.217Z,10.27
2023-02-12T10:40:17.941Z,10.10
2023-02-12T10:42:48.968Z,10.40
2023-02-12T10:45:22.357Z,10.00
2023-02-12T10:47:54.592Z,11.27
2023-02-12T10:50:33.677Z,9.70
2023-02-12T10:53:03.409Z,9.17
2023-02-12T10:55:32.273Z,9.43
2023-02-12T10:58:01.431Z,9.17
2023-02-12T11:00:36.739Z,10.60
2023-02-12T11:03:12.511Z,10.63
2023-02-12T11:05:41.860Z,10.80
2023-02-12T11:08:26.389Z,10.40
2023-02-12T11:10:53.251Z,10.27
2023-02-12T11:13:27.865Z,9.97
2023-02-12T11:15:55.362Z,11.03
2023-02-12T11:18:28.210Z,10.57
2023-02-12T11:21:09.936Z,10.43
2023-02-12T11:23:42.031Z,10.43
2023-02-12T11:26:17.517Z,10.43
2023-02-12T11:28:54.839Z,10.50
2023-02-12T11:31:30.008Z,11.33
2023-02-12T11:34:07.816Z,11.23
2023-02-12T11:36:41.506Z,10.23
2023-02-12T11:39:18.170Z,10.37
2023-02-12T11:41:45.049Z,10.63
2023-02-12T11:44:18.124Z,11.80
2023-02-12T11:46:50.978Z,10.63
2023-02-12T11:49:25.223Z,11.00
2023-02-12T11:51:52.669Z,11.67
2023-02-12T11:54:33.935Z,10.93
2023-02-12T11:57:00.597Z,11.93
2023-02-12T11:59:36.877Z,11.63
2023-02-12T12:02:30.354Z,11.83
2023-02-12T12:05:08.061Z,11.93
2023-02-12T12:07:39.039Z,11.77
2023-02-12T12:10:25.729Z,12.80
2023-02-12T12:12:59.685Z,12.77
2023-02-12T12:15:49.288Z,12.87
2023-02-12T12:19:19.974Z,12.60
2023-02-12T12:22:27.985Z,13.33
2023-02-12T12:25:06.387Z,12.87
2023-02-12T12:28:03.134Z,12.97
2023-02-12T12:30:53.096Z,13.10
2023-02-12T12:33:30.698Z,12.83
2023-02-12T12:36:25.849Z,13.40
2023-02-12T12:38:58.421Z,12.80
2023-02-12T12:41:59.712Z,12.23
2023-02-12T12:44:40.427Z,12.40
2023-02-12T12:47:17.478Z,12.67
2023-02-12T12:50:00.339Z,11.97
2023-02-12T12:52:52.765Z,13.23
2023-02-12T12:55:50.283Z,12.07
2023-02-12T12:58:55.826Z,12.00
2023-02-12T13:01:50.684Z,12.43
2023-02-12T13:04:39.996Z,11.63
2023-02-12T13:07:25.054Z,12.83
2023-02-12T13:10:07.844Z,14.33
2023-02-12T13:13:06.896Z,12.97
2023-02-12T13:15:44.234Z,13.27
2023-02-12T13:18:10.815Z,11.80
2023-02-12T13:21:04.135Z,11.90
2023-02-12T13:23:37.804Z,11.40
2023-02-12T13:26:31.788Z,12.13
2023-02-12T13:29:09.842Z,12.60
2023-02-12T13:31:45.351Z,12.00
2023-02-12T13:34:15.053Z,11.10
2023-02-12T13:36:42.550Z,11.57
2023-02-12T13:39:18.793Z,11.83
2023-02-12T13:41:55.208Z,11.27
2023-02-12T13:44:40.772Z,11.13
2023-02-12T13:47:21.309Z,11.40
2023-02-12T13:50:10.861Z,10.63
2023-02-12T13:52:49.574Z,10.33
2023-02-12T13:55:29.190Z,10.77
2023-02-12T13:58:39.696Z,11.00
2023-02-12T14:01:10.766Z,9.97
2023-02-12T14:03:38.794Z,9.93
2023-02-12T14:06:13.146Z,10.20
2023-02-12T14:08:47.034Z,9.57
2023-02-12T14:11:17.278Z,9.13
2023-02-12T14:14:04.129Z,9.80
2023-02-12T14:16:30.708Z,9.13
2023-02-12T14:19:34.820Z,8.63
2023-02-12T14:22:02.856Z,9.50
2023-02-12T14:24:38.532Z,9.20
2023-02-12T14:27:17.445Z,9.03
2023-02-12T14:30:09.013Z,9.17
2023-02-12T14:32:55.232Z,8.63
2023-02-12T14:35:33.925Z,7.87
2023-02-12T14:38:03.685Z,7.67
2023-02-12T14:40:33.031Z,7.77
2023-02-12T14:43:01.877Z,7.30
2023-02-12T14:45:36.223Z,6.87
2023-02-12T14:48:05.074Z,6.83
2023-02-12T14:50:39.537Z,6.43
2023-02-12T14:53:22.288Z,6.80
2023-02-12T14:55:49.746Z,6.53
2023-02-12T14:58:20.434Z,5.80
2023-02-12T15:00:50.729Z,6.10
2023-02-12T15:03:30.580Z,5.93
2023-02-12T15:06:09.988Z,6.07
2023-02-12T15:08:55.138Z,5.70
2023-02-12T15:11:54.207Z,5.63
2023-02-12T15:14:39.982Z,5.37
2023-02-12T15:17:20.958Z,5.20
2023-02-12T15:20:02.693Z,5.03
2023-02-12T15:22:40.483Z,5.63
2023-02-12T15:25:27.166Z,4.50
2023-02-12T15:28:02.238Z,5.40
2023-02-12T15:30:35.945Z,5.30
2023-02-12T15:33:06.844Z,5.20
2023-02-12T15:35:37.073Z,5.10
2023-02-12T15:38:07.455Z,4.67
2023-02-12T15:40:34.879Z,4.97
2023-02-12T15:43:07.335Z,4.73
2023-02-12T15:45:36.181Z,5.30
2023-02-12T15:48:15.899Z,5.03
2023-02-12T15:50:55.981Z,5.40
2023-02-12T15:53:25.951Z,5.90
2023-02-12T15:55:52.984Z,7.73
2023-02-12T15:58:24.666Z,7.73
2023-02-12T16:00:52.799Z,7.23
2023-02-12T16:03:31.902Z,7.37
2023-02-12T16:06:18.534Z,7.10
2023-02-12T16:08:49.476Z,7.73
2023-02-12T16:11:23.194Z,8.43
2023-02-12T16:13:54.076Z,7.77
2023-02-12T16:16:28.933Z,8.00
2023-02-12T16:19:26.327Z,7.60
2023-02-12T16:22:06.302Z,7.43
2023-02-12T16:24:39.998Z,8.10
2023-02-12T16:27:18.923Z,7.63
2023-02-12T16:29:57.971Z,7.40
2023-02-12T16:32:42.324Z,7.77
2023-02-12T16:35:12.122Z,6.93
2023-02-12T16:37:38.746Z,7.33
2023-02-12T16:40:17.536Z,8.07
2023-02-12T16:42:46.988Z,7.50
2023-02-12T16:45:35.258Z,8.13
2023-02-12T16:48:07.677Z,8.30
2023-02-12T16:50:43.552Z,10.27
2023-02-12T16:53:33.462Z,9.77
2023-02-12T16:56:01.523Z,9.13
2023-02-12T16:58:28.550Z,10.10
2023-02-12T17:00:57.203Z,10.60
2023-02-12T17:03:24.598Z,9.13
2023-02-12T17:05:52.423Z,9.10
2023-02-12T17:08:22.237Z,9.60
2023-02-12T17:10:48.927Z,10.10
2023-02-12T17:13:16.246Z,9.27
2023-02-12T17:15:49.737Z,9.10
2023-02-12T17:18:18.178Z,9.27
2023-02-12T17:20:51.666Z,9.90
2023-02-12T17:23:18.519Z,9.63
2023-02-12T17:25:45.225Z,9.47
2023-02-12T17:28:12.443Z,9.77
2023-02-12T17:30:39.238Z,9.87
2023-02-12T17:33:05.934Z,10.43
2023-02-12T17:35:32.579Z,13.70
2023-02-12T17:37:59.308Z,20.73
2023-02-12T17:40:26.062Z,20.03
2023-02-12T17:42:52.730Z,17.13
2023-02-12T17:45:19.503Z,14.93
2023-02-12T17:47:46.507Z,15.40
2023-02-12T17:50:15.522Z,15.33
2023-02-12T17:52:42.968Z,19.10
2023-02-12T17:55:14.911Z,16.23
2023-02-12T17:57:41.606Z,14.40
2023-02-12T18:00:10.373Z,17.70
2023-02-12T18:02:39.981Z,15.20
2023-02-12T18:05:07.220Z,14.83
2023-02-12T18:07:35.465Z,14.80
2023-02-12T18:10:02.215Z,13.87
2023-02-12T18:12:30.818Z,16.60
2023-02-12T18:14:58.548Z,15.90
2023-02-12T18:17:25.524Z,14.27
2023-02-12T18:19:53.330Z,15.10
2023-02-12T18:22:20.699Z,14.77
2023-02-12T18:24:47.690Z,14.43
2023-02-12T18:27:15.559Z,15.47
2023-02-12T18:29:42.253Z,15.93
2023-02-12T18:32:14.404Z,17.47
2023-02-12T18:34:42.564Z,15.33
2023-02-12T18:37:11.047Z,13.67
2023-02-12T18:39:37.951Z,13.57
2023-02-12T18:42:05.348Z,12.83
2023-02-12T18:44:32.285Z,14.67
2023-02-12T18:46:59.984Z,17.20
2023-02-12T18:49:28.003Z,17.30
2023-02-12T18:51:54.992Z,14.47
2023-02-12T18:54:22.471Z,13.67
2023-02-12T18:56:51.525Z,14.27
2023-02-12T18:59:18.595Z,12.87
2023-02-12T19:01:47.117Z,12.90
2023-02-12T19:04:16.029Z,13.67
2023-02-12T19:06:46.128Z,13.13
2023-02-12T19:09:16.524Z,13.20
2023-02-12T19:11:46.388Z,13.30
2023-02-12T19:14:14.647Z,13.37
2023-02-12T19:16:42.025Z,13.87
2023-02-12T19:19:08.977Z,14.50
2023-02-12T19:21:35.846Z,14.43
2023-02-12T19:24:04.741Z,13.67
2023-02-12T19:26:33.628Z,13.50
2023-02-12T19:29:01.259Z,13.03
2023-02-12T19:31:33.791Z,14.33
2023-02-12T19:34:03.746Z,14.30
2023-02-12T19:36:33.617Z,13.23
2023-02-12T19:39:00.882Z,14.60
2023-02-12T19:41:29.975Z,13.00
2023-02-12T19:43:58.798Z,13.53
2023-02-12T19:46:30.003Z,15.00
2023-02-12T19:48:59.510Z,14.60
2023-02-12T19:51:27.682Z,15.17
2023-02-12T19:53:54.402Z,13.40
2023-02-12T19:56:21.259Z,13.90
2023-02-12T19:58:47.934Z,13.23
2023-02-12T20:01:17.838Z,15.70
2023-02-12T20:03:46.260Z,14.03
2023-02-12T20:06:19.437Z,13.90
2023-02-12T20:08:46.266Z,13.73
2023-02-12T20:11:17.563Z,13.93
2023-02-12T20:13:44.681Z,14.50
2023-02-12T20:16:17.836Z,14.23
2023-02-12T20:18:46.707Z,14.17
2023-02-12T20:21:20.392Z,16.60
2023-02-12T20:23:47.116Z,20.03
2023-02-12T20:26:15.435Z,28.57
2023-02-12T20:28:43.039Z,24.37
2023-02-12T20:31:15.567Z,27.73
2023-02-12T20:33:43.255Z,22.60
2023-02-12T20:36:13.684Z,18.17
2023-02-12T20:38:42.033Z,17.73
2023-02-12T20:41:09.989Z,17.03
2023-02-12T20:43:38.534Z,16.43
2023-02-12T20:46:11.891Z,16.90
2023-02-12T20:48:39.322Z,16.67
2023-02-12T20:51:08.361Z,16.37
2023-02-12T20:53:35.802Z,16.73
2023-02-12T20:56:17.729Z,16.73
2023-02-12T20:58:45.952Z,16.73
2023-02-12T21:01:21.360Z,17.70
2023-02-12T21:03:49.396Z,17.27
2023-02-12T21:06:16.028Z,16.47
2023-02-12T21:08:43.103Z,16.07
2023-02-12T21:11:15.298Z,17.00
2023-02-12T21:13:50.396Z,19.70
2023-02-12T21:16:32.093Z,18.37
2023-02-12T21:18:59.351Z,17.43
2023-02-12T21:21:34.952Z,17.50
2023-02-12T21:24:03.993Z,17.63
2023-02-12T21:26:32.004Z,18.40
2023-02-12T21:29:00.229Z,17.53
2023-02-12T21:31:38.509Z,16.73
2023-02-12T21:34:06.791Z,17.70
2023-02-12T21:36:39.950Z,17.43
2023-02-12T21:39:09.184Z,17.93
2023-02-12T21:41:38.095Z,18.33
2023-02-12T21:44:15.709Z,18.27
2023-02-12T21:46:43.408Z,19.27
2023-02-12T21:49:12.399Z,18.63
2023-02-12T21:51:41.875Z,19.73
2023-02-12T21:54:11.228Z,18.50
2023-02-12T21:56:39.314Z,18.10
2023-02-12T21:59:08.506Z,19.00
2023-02-12T22:01:38.041Z,19.40
2023-02-12T22:04:06.658Z,18.97
2023-02-12T22:06:37.243Z,20.20
2023-02-12T22:09:08.789Z,19.37
2023-02-12T22:11:36.897Z,18.80
2023-02-12T22:14:04.648Z,19.43
2023-02-12T22:16:31.749Z,21.57
2023-02-12T22:19:00.482Z,20.47
2023-02-12T22:21:34.947Z,20.93
2023-02-12T22:24:03.025Z,21.03
2023-02-12T22:26:31.387Z,19.60
2023-02-12T22:29:01.788Z,19.97
2023-02-12T22:31:31.444Z,21.47
2023-02-12T22:34:00.780Z,19.77
2023-02-12T22:36:28.540Z,20.20
2023-02-12T22:38:58.261Z,20.27
2023-02-12T22:41:27.567Z,20.60
2023-02-12T22:43:54.515Z,19.33
2023-02-12T22:46:21.408Z,19.13
2023-02-12T22:48:48.067Z,20.43
2023-02-12T22:51:21.032Z,20.07
2023-02-12T22:53:47.767Z,19.37
2023-02-12T22:56:15.023Z,20.23
2023-02-12T22:58:42.167Z,20.43
2023-02-12T23:01:12.109Z,19.07
2023-02-12T23:03:38.888Z,18.87
2023-02-12T23:06:16.739Z,19.50
2023-02-12T23:08:44.284Z,19.33
2023-02-12T23:11:11.807Z,19.47
2023-02-12T23:13:38.800Z,19.83
2023-02-12T23:16:05.740Z,17.73
2023-02-12T23:18:32.928Z,20.03
2023-02-12T23:21:00.409Z,20.33
2023-02-12T23:23:27.467Z,19.77
2023-02-12T23:25:54.690Z,19.60
2023-02-12T23:28:21.947Z,20.67
2023-02-12T23:30:49.848Z,19.87
2023-02-12T23:33:16.774Z,19.97
2023-02-12T23:35:44.528Z,18.60
2023-02-12T23:38:11.473Z,18.57
2023-02-12T23:40:38.839Z,19.57
2023-02-12T23:43:05.616Z,19.33
2023-02-12T23:45:32.297Z,19.27
2023-02-12T23:47:59.274Z,18.50
2023-02-12T23:50:25.923Z,18.77
2023-02-12T23:52:52.530Z,17.67
2023-02-12T23:55:20.204Z,18.23
2023-02-12T23:57:47.807Z,17.80
